createdAt,value
2022-11-17T00:01:18.610Z,71.21
2022-11-17T00:03:45.593Z,71.27
2022-11-17T00:06:12.440Z,70.79
2022-11-17T00:08:39.206Z,71.46
2022-11-17T00:11:06.298Z,71.04
2022-11-17T00:13:51.437Z,71.31
2022-11-17T00:16:18.954Z,71.52
2022-11-17T00:19:04.442Z,71.32
2022-11-17T00:21:31.528Z,71.94
2022-11-17T00:23:58.402Z,71.55
2022-11-17T00:26:35.134Z,72.74
2022-11-17T00:29:04.690Z,72.00
2022-11-17T00:31:51.443Z,71.92
2022-11-17T00:34:19.819Z,72.22
2022-11-17T00:36:50.532Z,71.52
2022-11-17T00:39:18.047Z,72.22
2022-11-17T00:41:44.979Z,72.41
2022-11-17T00:44:11.850Z,72.19
2022-11-17T00:46:39.193Z,72.64
2022-11-17T00:49:06.888Z,72.08
2022-11-17T00:51:33.758Z,72.33
2022-11-17T00:54:00.928Z,73.36
2022-11-17T00:56:28.153Z,73.18
2022-11-17T00:58:54.897Z,72.17
2022-11-17T01:01:21.663Z,73.89
2022-11-17T01:03:48.564Z,74.07
2022-11-17T01:06:16.640Z,74.40
2022-11-17T01:08:43.438Z,74.33
2022-11-17T01:11:12.377Z,73.59
2022-11-17T01:13:39.872Z,73.61
2022-11-17T01:16:11.624Z,74.49
2022-11-17T01:18:39.106Z,74.58
2022-11-17T01:21:16.066Z,73.97
2022-11-17T01:23:43.492Z,73.87
2022-11-17T01:26:12.282Z,73.81
2022-11-17T01:28:39.595Z,74.36
2022-11-17T01:31:07.757Z,75.97
2022-11-17T01:33:35.134Z,74.83
2022-11-17T01:36:03.219Z,74.18
2022-11-17T01:38:30.316Z,73.61
2022-11-17T01:40:57.870Z,73.06
2022-11-17T01:43:38.013Z,72.67
2022-11-17T01:46:05.045Z,71.74
2022-11-17T01:48:31.817Z,71.29
2022-11-17T01:50:58.632Z,71.38
2022-11-17T01:53:28.651Z,70.93
2022-11-17T01:56:01.924Z,70.65
2022-11-17T01:58:31.570Z,70.33
2022-11-17T02:00:58.343Z,69.99
2022-11-17T02:03:25.587Z,69.82
2022-11-17T02:05:56.031Z,69.84
2022-11-17T02:08:24.557Z,69.49
2022-11-17T02:10:52.162Z,69.09
2022-11-17T02:13:20.267Z,69.07
2022-11-17T02:15:46.960Z,72.21
2022-11-17T02:18:15.158Z,70.56
2022-11-17T02:20:49.367Z,75.40
2022-11-17T02:23:22.097Z,72.23
2022-11-17T02:26:07.632Z,70.73
2022-11-17T02:28:36.344Z,70.86
2022-11-17T02:31:03.122Z,71.06
2022-11-17T02:33:51.370Z,70.41
2022-11-17T02:36:21.310Z,69.84
2022-11-17T02:38:56.738Z,69.53
2022-11-17T02:41:29.469Z,69.03
2022-11-17T02:44:05.408Z,68.83
2022-11-17T02:46:45.522Z,68.42
2022-11-17T02:49:24.908Z,68.39
2022-11-17T02:51:53.443Z,67.03
2022-11-17T02:54:22.916Z,67.04
2022-11-17T02:56:49.986Z,71.63
2022-11-17T02:59:18.315Z,71.29
2022-11-17T03:01:48.414Z,71.09
2022-11-17T03:04:18.330Z,71.00
2022-11-17T03:07:03.538Z,70.68
2022-11-17T03:09:43.938Z,71.81
2022-11-17T03:12:13.506Z,72.30
2022-11-17T03:14:46.387Z,73.55
2022-11-17T03:17:19.322Z,74.11
2022-11-17T03:19:50.308Z,73.88
2022-11-17T03:22:43.696Z,75.81
2022-11-17T03:25:14.492Z,77.49
2022-11-17T03:27:44.544Z,78.14
2022-11-17T03:30:12.720Z,79.46
2022-11-17T03:32:43.816Z,78.32
2022-11-17T03:35:12.838Z,78.68
2022-11-17T03:37:42.982Z,79.47
2022-11-17T03:40:11.614Z,81.69
2022-11-17T03:42:40.726Z,80.74
2022-11-17T03:45:19.686Z,80.93
2022-11-17T03:47:47.243Z,80.60
2022-11-17T03:50:28.572Z,80.21
2022-11-17T03:52:55.325Z,79.88
2022-11-17T03:55:27.211Z,78.55
2022-11-17T03:57:59.885Z,79.55
2022-11-17T04:00:26.711Z,78.01
2022-11-17T04:02:58.953Z,76.70
2022-11-17T04:05:26.279Z,77.64
2022-11-17T04:07:52.958Z,77.08
2022-11-17T04:10:20.832Z,76.74
2022-11-17T04:13:07.372Z,77.08
2022-11-17T04:15:52.476Z,76.58
2022-11-17T04:18:20.003Z,76.14
2022-11-17T04:20:50.033Z,74.56
2022-11-17T04:23:16.845Z,73.89
2022-11-17T04:26:03.292Z,73.98
2022-11-17T04:28:37.176Z,73.85
2022-11-17T04:31:08.790Z,74.19
2022-11-17T04:33:36.550Z,73.58
2022-11-17T04:36:04.349Z,73.47
2022-11-17T04:38:31.172Z,73.01
2022-11-17T04:41:20.535Z,73.19
2022-11-17T04:43:47.401Z,73.44
2022-11-17T04:46:14.501Z,73.19
2022-11-17T04:48:41.257Z,72.54
2022-11-17T04:51:07.994Z,72.62
2022-11-17T04:53:34.880Z,72.59
2022-11-17T04:56:02.025Z,72.27
2022-11-17T04:58:29.131Z,71.70
2022-11-17T05:00:55.913Z,71.39
2022-11-17T05:03:22.969Z,72.66
2022-11-17T05:05:49.688Z,73.27
2022-11-17T05:08:16.378Z,72.30
2022-11-17T05:11:01.872Z,72.15
2022-11-17T05:13:28.613Z,71.54
2022-11-17T05:16:14.990Z,72.18
2022-11-17T05:18:42.450Z,71.86
2022-11-17T05:21:10.397Z,71.17
2022-11-17T05:23:56.132Z,70.86
2022-11-17T05:26:24.510Z,70.43
2022-11-17T05:28:51.426Z,70.02
2022-11-17T05:31:18.206Z,69.58
2022-11-17T05:33:45.106Z,69.26
2022-11-17T05:36:12.366Z,69.48
2022-11-17T05:38:39.257Z,69.44
2022-11-17T05:41:06.313Z,70.23
2022-11-17T05:43:33.710Z,70.32
2022-11-17T05:46:00.952Z,70.83
2022-11-17T05:48:27.836Z,70.80
2022-11-17T05:50:57.956Z,70.93
2022-11-17T05:53:25.130Z,70.94
2022-11-17T05:55:52.323Z,70.49
2022-11-17T05:58:22.763Z,69.96
2022-11-17T06:00:49.813Z,69.89
2022-11-17T06:03:37.102Z,69.59
2022-11-17T06:06:04.244Z,69.42
2022-11-17T06:08:31.234Z,69.33
2022-11-17T06:10:57.961Z,68.06
2022-11-17T06:13:28.102Z,68.25
2022-11-17T06:15:59.729Z,68.63
2022-11-17T06:18:29.074Z,69.18
2022-11-17T06:20:55.824Z,70.22
2022-11-17T06:23:26.265Z,70.68
2022-11-17T06:25:53.161Z,74.53
2022-11-17T06:28:21.079Z,74.10
2022-11-17T06:30:48.715Z,72.27
2022-11-17T06:33:17.364Z,72.06
2022-11-17T06:35:44.918Z,73.78
2022-11-17T06:38:11.876Z,73.77
2022-11-17T06:40:38.764Z,71.77
2022-11-17T06:43:09.928Z,69.66
2022-11-17T06:45:41.131Z,68.74
2022-11-17T06:48:08.674Z,68.53
2022-11-17T06:50:35.459Z,67.84
2022-11-17T06:53:04.036Z,67.56
2022-11-17T06:55:31.110Z,68.71
2022-11-17T06:58:01.666Z,68.34
2022-11-17T07:00:33.303Z,67.59
2022-11-17T07:03:13.783Z,66.96
2022-11-17T07:05:40.739Z,69.45
2022-11-17T07:08:08.465Z,73.32
2022-11-17T07:10:36.270Z,75.42
2022-11-17T07:13:03.466Z,73.19
2022-11-17T07:15:30.817Z,73.19
2022-11-17T07:17:57.658Z,76.63
2022-11-17T07:20:24.533Z,73.48
2022-11-17T07:22:51.422Z,72.90
2022-11-17T07:25:22.259Z,71.72
2022-11-17T07:27:49.651Z,71.92
2022-11-17T07:30:16.590Z,74.61
2022-11-17T07:32:43.672Z,75.50
2022-11-17T07:35:10.596Z,74.12
2022-11-17T07:37:38.182Z,74.22
2022-11-17T07:40:10.411Z,73.94
2022-11-17T07:42:37.091Z,72.64
2022-11-17T07:45:03.992Z,73.24
2022-11-17T07:47:31.316Z,71.77
2022-11-17T07:49:58.066Z,71.85
2022-11-17T07:52:27.787Z,71.97
2022-11-17T07:55:03.918Z,71.47
2022-11-17T07:57:31.662Z,71.60
2022-11-17T07:59:58.556Z,70.39
2022-11-17T08:02:28.731Z,70.05
2022-11-17T08:04:55.453Z,69.51
2022-11-17T08:07:22.938Z,70.81
2022-11-17T08:09:51.750Z,69.96
2022-11-17T08:12:18.507Z,70.58
2022-11-17T08:14:45.432Z,69.57
2022-11-17T08:17:12.144Z,68.88
2022-11-17T08:19:38.985Z,68.28
2022-11-17T08:22:06.168Z,69.50
2022-11-17T08:24:32.976Z,70.21
2022-11-17T08:27:00.349Z,68.73
2022-11-17T08:29:28.336Z,67.14
2022-11-17T08:31:55.300Z,68.79
2022-11-17T08:34:22.082Z,71.05
2022-11-17T08:36:48.788Z,71.97
2022-11-17T08:39:15.693Z,72.35
2022-11-17T08:41:42.452Z,72.68
2022-11-17T08:44:09.457Z,71.54
2022-11-17T08:46:36.206Z,71.38
2022-11-17T08:49:03.182Z,70.71
2022-11-17T08:51:29.998Z,71.13
2022-11-17T08:53:56.970Z,71.87
2022-11-17T08:56:23.800Z,70.21
2022-11-17T08:58:50.589Z,69.48
2022-11-17T09:01:17.514Z,67.83
2022-11-17T09:03:46.039Z,69.46
2022-11-17T09:06:13.415Z,69.70
2022-11-17T09:08:46.594Z,68.55
2022-11-17T09:11:23.114Z,68.57
2022-11-17T09:13:49.971Z,70.97
2022-11-17T09:16:18.013Z,70.90
2022-11-17T09:18:45.889Z,69.28
2022-11-17T09:21:15.481Z,68.82
2022-11-17T09:23:43.054Z,69.44
2022-11-17T09:26:11.443Z,70.60
2022-11-17T09:28:39.088Z,70.77
2022-11-17T09:31:09.312Z,70.56
2022-11-17T09:33:36.523Z,72.99
2022-11-17T09:36:04.107Z,69.97
2022-11-17T09:38:31.337Z,70.67
2022-11-17T09:40:59.491Z,69.38
2022-11-17T09:43:28.942Z,71.31
2022-11-17T09:46:07.524Z,73.32
2022-11-17T09:48:44.961Z,74.81
2022-11-17T09:51:16.431Z,71.52
2022-11-17T09:53:52.127Z,71.95
2022-11-17T09:56:19.026Z,70.70
2022-11-17T09:58:55.687Z,69.77
2022-11-17T10:01:22.910Z,70.03
2022-11-17T10:03:51.316Z,70.96
2022-11-17T10:06:22.300Z,70.97
2022-11-17T10:09:08.086Z,70.82
2022-11-17T10:11:37.783Z,70.62
2022-11-17T10:14:12.415Z,70.62
2022-11-17T10:16:40.940Z,70.16
2022-11-17T10:19:19.399Z,68.47
2022-11-17T10:21:48.001Z,68.47
2022-11-17T10:24:33.460Z,68.88
2022-11-17T10:27:00.677Z,68.26
2022-11-17T10:29:29.463Z,68.28
2022-11-17T10:31:58.743Z,68.37
2022-11-17T10:34:38.908Z,68.61
2022-11-17T10:37:13.597Z,68.81
2022-11-17T10:39:42.328Z,67.29
2022-11-17T10:42:22.698Z,65.85
2022-11-17T10:44:54.693Z,64.79
2022-11-17T10:47:34.172Z,67.08
2022-11-17T10:50:20.253Z,66.53
2022-11-17T10:52:47.883Z,65.82
2022-11-17T10:55:21.281Z,64.98
2022-11-17T10:57:49.768Z,65.19
2022-11-17T11:00:28.195Z,63.76
2022-11-17T11:03:16.765Z,64.63
2022-11-17T11:05:56.344Z,64.07
2022-11-17T11:08:25.399Z,63.50
2022-11-17T11:10:56.055Z,63.66
2022-11-17T11:13:42.173Z,63.39
2022-11-17T11:16:11.070Z,63.76
2022-11-17T11:18:38.764Z,62.49
2022-11-17T11:21:12.800Z,63.75
2022-11-17T11:24:00.534Z,64.03
2022-11-17T11:26:42.686Z,67.46
2022-11-17T11:29:23.905Z,66.79
2022-11-17T11:32:02.441Z,71.72
2022-11-17T11:34:41.491Z,71.46
2022-11-17T11:37:15.402Z,71.91
2022-11-17T11:39:48.429Z,73.25
2022-11-17T11:42:50.916Z,75.38
2022-11-17T11:45:29.825Z,74.11
2022-11-17T11:47:56.570Z,74.19
2022-11-17T11:50:25.530Z,73.79
2022-11-17T11:52:58.112Z,70.71
2022-11-17T11:55:28.145Z,69.25
2022-11-17T11:58:01.148Z,69.82
2022-11-17T12:00:27.915Z,69.54
2022-11-17T12:03:03.368Z,67.92
2022-11-17T12:05:48.939Z,68.16
2022-11-17T12:08:28.123Z,67.77
2022-11-17T12:10:58.244Z,66.25
2022-11-17T12:13:25.585Z,66.60
2022-11-17T12:16:12.587Z,65.95
2022-11-17T12:18:39.508Z,65.83
2022-11-17T12:21:12.686Z,63.42
2022-11-17T12:24:02.446Z,62.13
2022-11-17T12:26:30.353Z,60.19
2022-11-17T12:29:16.131Z,58.71
2022-11-17T12:31:44.618Z,57.68
2022-11-17T12:34:24.169Z,57.00
2022-11-17T12:37:09.684Z,56.44
2022-11-17T12:39:51.927Z,56.04
2022-11-17T12:42:18.752Z,54.37
2022-11-17T12:45:04.592Z,53.88
2022-11-17T12:47:35.464Z,53.69
2022-11-17T12:50:08.449Z,53.07
2022-11-17T12:52:52.733Z,53.31
2022-11-17T12:55:28.655Z,53.43
2022-11-17T12:57:59.559Z,53.69
2022-11-17T13:00:29.789Z,54.16
2022-11-17T13:02:59.264Z,54.31
2022-11-17T13:05:29.614Z,53.90
2022-11-17T13:08:34.109Z,53.54
2022-11-17T13:11:12.815Z,52.46
2022-11-17T13:13:45.488Z,52.92
2022-11-17T13:16:28.024Z,52.95
2022-11-17T13:18:56.905Z,53.35
2022-11-17T13:21:26.592Z,51.65
2022-11-17T13:23:53.945Z,51.29
2022-11-17T13:26:28.375Z,51.97
2022-11-17T13:29:14.943Z,52.97
2022-11-17T13:31:41.989Z,54.75
2022-11-17T13:34:11.748Z,54.28
2022-11-17T13:36:53.496Z,54.30
2022-11-17T13:39:25.771Z,54.69
2022-11-17T13:41:54.934Z,55.15
2022-11-17T13:44:26.522Z,55.16
2022-11-17T13:46:55.798Z,56.09
2022-11-17T13:49:35.329Z,55.97
2022-11-17T13:52:03.327Z,56.98
2022-11-17T13:54:30.701Z,56.61
2022-11-17T13:57:07.770Z,56.78
2022-11-17T13:59:39.393Z,57.18
2022-11-17T14:02:15.569Z,56.99
2022-11-17T14:04:45.038Z,57.59
2022-11-17T14:07:15.422Z,57.73
2022-11-17T14:09:44.057Z,57.76
2022-11-17T14:12:17.133Z,58.16
2022-11-17T14:14:54.254Z,57.98
2022-11-17T14:17:22.445Z,59.13
2022-11-17T14:19:49.380Z,58.31
2022-11-17T14:22:23.537Z,59.30
2022-11-17T14:24:56.515Z,59.29
2022-11-17T14:27:30.080Z,59.66
2022-11-17T14:29:56.918Z,59.95
2022-11-17T14:32:23.744Z,60.86
2022-11-17T14:34:50.578Z,60.25
2022-11-17T14:37:17.575Z,60.04
2022-11-17T14:39:44.562Z,59.72
2022-11-17T14:42:14.022Z,59.83
2022-11-17T14:44:41.218Z,60.56
2022-11-17T14:47:08.230Z,60.18
2022-11-17T14:49:35.395Z,60.03
2022-11-17T14:52:03.070Z,60.75
2022-11-17T14:54:30.821Z,60.73
2022-11-17T14:56:57.596Z,60.98
2022-11-17T14:59:24.521Z,60.83
2022-11-17T15:01:51.501Z,61.04
2022-11-17T15:04:48.954Z,60.99
2022-11-17T15:07:05.414Z,60.55
2022-11-17T15:09:32.356Z,61.47
2022-11-17T15:11:59.221Z,61.00
2022-11-17T15:14:28.118Z,61.28
2022-11-17T15:16:54.957Z,61.53
2022-11-17T15:19:21.648Z,61.77
2022-11-17T15:21:48.394Z,61.53
2022-11-17T15:24:15.634Z,61.41
2022-11-17T15:26:42.572Z,62.58
2022-11-17T15:29:12.441Z,62.34
2022-11-17T15:31:39.206Z,62.68
2022-11-17T15:34:06.033Z,62.70
2022-11-17T15:36:33.014Z,62.34
2022-11-17T15:39:00.722Z,62.24
2022-11-17T15:41:32.565Z,63.95
2022-11-17T15:43:59.788Z,62.93
2022-11-17T15:46:26.557Z,65.64
2022-11-17T15:48:53.403Z,65.85
2022-11-17T15:51:21.145Z,67.86
2022-11-17T15:53:48.505Z,67.50
2022-11-17T15:56:19.664Z,69.94
2022-11-17T15:58:46.939Z,68.58
2022-11-17T16:01:14.915Z,72.85
2022-11-17T16:03:43.903Z,70.98
2022-11-17T16:06:11.239Z,71.30
2022-11-17T16:08:38.922Z,71.41
2022-11-17T16:11:06.194Z,74.45
2022-11-17T16:13:33.291Z,72.70
2022-11-17T16:16:00.025Z,72.16
2022-11-17T16:18:27.179Z,71.33
2022-11-17T16:20:54.136Z,70.97
2022-11-17T16:23:21.000Z,70.52
2022-11-17T16:25:48.537Z,71.67
2022-11-17T16:28:16.867Z,70.65
2022-11-17T16:30:43.653Z,70.22
2022-11-17T16:33:11.840Z,69.92
2022-11-17T16:35:39.396Z,69.12
2022-11-17T16:38:06.297Z,68.71
2022-11-17T16:40:35.398Z,68.84
2022-11-17T16:43:02.204Z,68.62
2022-11-17T16:45:28.995Z,69.25
2022-11-17T16:47:55.728Z,69.07
2022-11-17T16:50:22.491Z,68.90
2022-11-17T16:52:49.398Z,70.07
2022-11-17T16:55:16.450Z,68.81
2022-11-17T16:57:43.399Z,68.79
2022-11-17T17:00:10.850Z,68.60
2022-11-17T17:02:37.628Z,68.33
2022-11-17T17:05:04.532Z,68.34
2022-11-17T17:07:31.299Z,67.77
2022-11-17T17:09:58.230Z,67.74
2022-11-17T17:12:25.084Z,68.53
2022-11-17T17:14:51.760Z,68.13
2022-11-17T17:17:18.605Z,68.40
2022-11-17T17:19:45.359Z,67.61
2022-11-17T17:22:12.125Z,67.31
2022-11-17T17:24:38.847Z,67.17
2022-11-17T17:27:07.357Z,67.27
2022-11-17T17:29:34.130Z,66.98
2022-11-17T17:32:00.972Z,67.00
2022-11-17T17:34:27.723Z,66.18
2022-11-17T17:36:54.411Z,66.81
2022-11-17T17:39:21.173Z,67.42
2022-11-17T17:41:47.937Z,67.17
2022-11-17T17:44:16.400Z,67.37
2022-11-17T17:46:43.439Z,67.39
2022-11-17T17:49:10.406Z,67.20
2022-11-17T17:51:42.479Z,66.98
2022-11-17T17:54:13.323Z,67.51
2022-11-17T17:56:40.017Z,67.50
2022-11-17T17:59:06.875Z,66.66
2022-11-17T18:01:33.913Z,69.60
2022-11-17T18:04:05.275Z,68.71
2022-11-17T18:06:39.152Z,68.41
2022-11-17T18:09:06.697Z,68.23
2022-11-17T18:11:33.727Z,68.23
2022-11-17T18:14:00.757Z,68.44
2022-11-17T18:16:29.213Z,68.48
2022-11-17T18:18:57.241Z,68.54
2022-11-17T18:21:23.959Z,68.26
2022-11-17T18:23:52.312Z,68.24
2022-11-17T18:26:20.377Z,68.08
2022-11-17T18:28:57.874Z,68.05
2022-11-17T18:31:25.763Z,67.88
2022-11-17T18:33:53.409Z,67.63
2022-11-17T18:36:21.382Z,67.83
2022-11-17T18:38:48.095Z,67.71
2022-11-17T18:41:16.011Z,67.54
2022-11-17T18:43:43.410Z,67.61
2022-11-17T18:46:11.657Z,68.61
2022-11-17T18:48:39.650Z,68.35
2022-11-17T18:51:22.752Z,68.67
2022-11-17T18:53:54.370Z,68.97
2022-11-17T18:56:25.576Z,68.03
2022-11-17T18:58:52.651Z,67.63
2022-11-17T19:01:20.815Z,67.72
2022-11-17T19:03:48.640Z,68.15
2022-11-17T19:06:16.730Z,68.13
2022-11-17T19:08:44.109Z,67.95
2022-11-17T19:11:11.993Z,67.80
2022-11-17T19:13:39.779Z,67.67
2022-11-17T19:16:06.766Z,67.67
2022-11-17T19:18:33.721Z,67.15
2022-11-17T19:21:08.584Z,66.96
2022-11-17T19:23:36.313Z,67.80
2022-11-17T19:26:04.836Z,69.00
2022-11-17T19:28:31.918Z,68.22
2022-11-17T19:31:06.397Z,68.74
2022-11-17T19:33:33.922Z,68.74
2022-11-17T19:36:04.590Z,68.90
2022-11-17T19:38:34.004Z,69.18
2022-11-17T19:41:27.046Z,68.85
2022-11-17T19:43:54.472Z,69.12
2022-11-17T19:46:21.639Z,69.34
2022-11-17T19:48:48.381Z,69.21
2022-11-17T19:51:17.579Z,69.20
2022-11-17T19:53:44.607Z,69.05
2022-11-17T19:56:11.616Z,68.84
2022-11-17T19:58:38.485Z,68.92
2022-11-17T20:01:14.401Z,68.62
2022-11-17T20:03:41.770Z,69.09
2022-11-17T20:06:09.914Z,68.87
2022-11-17T20:08:36.663Z,71.16
2022-11-17T20:11:06.417Z,69.86
2022-11-17T20:13:33.240Z,70.56
2022-11-17T20:16:00.843Z,70.52
2022-11-17T20:18:28.100Z,70.29
2022-11-17T20:20:54.871Z,70.13
2022-11-17T20:23:22.326Z,70.40
2022-11-17T20:25:49.089Z,71.20
2022-11-17T20:28:16.012Z,70.77
2022-11-17T20:30:42.731Z,70.67
2022-11-17T20:33:09.639Z,70.38
2022-11-17T20:35:37.578Z,70.11
2022-11-17T20:38:04.878Z,70.48
2022-11-17T20:40:32.495Z,72.47
2022-11-17T20:42:59.231Z,71.37
2022-11-17T20:45:26.230Z,72.10
2022-11-17T20:47:52.957Z,71.94
2022-11-17T20:50:19.582Z,71.32
2022-11-17T20:52:46.298Z,72.97
2022-11-17T20:55:13.018Z,71.63
2022-11-17T20:57:39.920Z,71.70
2022-11-17T21:00:07.454Z,72.43
2022-11-17T21:02:34.133Z,72.70
2022-11-17T21:05:00.928Z,72.10
2022-11-17T21:07:27.721Z,72.76
2022-11-17T21:09:54.549Z,71.54
2022-11-17T21:12:21.232Z,71.06
2022-11-17T21:14:48.187Z,72.42
2022-11-17T21:17:34.901Z,71.09
2022-11-17T21:20:01.698Z,72.09
2022-11-17T21:22:28.616Z,71.37
2022-11-17T21:24:55.477Z,73.11
2022-11-17T21:27:23.124Z,71.75
2022-11-17T21:29:49.883Z,71.11
2022-11-17T21:32:16.607Z,71.04
2022-11-17T21:34:48.545Z,72.99
2022-11-17T21:37:16.497Z,73.83
2022-11-17T21:39:43.168Z,76.58
2022-11-17T21:42:09.796Z,76.28
2022-11-17T21:44:36.526Z,75.84
2022-11-17T21:47:03.272Z,78.22
2022-11-17T21:49:30.178Z,76.24
2022-11-17T21:51:56.947Z,76.12
2022-11-17T21:54:23.693Z,76.53
2022-11-17T21:56:50.419Z,76.20
2022-11-17T21:59:17.550Z,78.85
2022-11-17T22:01:44.429Z,79.02
2022-11-17T22:04:12.380Z,78.21
2022-11-17T22:06:39.511Z,80.59
2022-11-17T22:09:06.596Z,81.10
2022-11-17T22:11:36.748Z,81.42
2022-11-17T22:14:20.334Z,81.47
2022-11-17T22:16:48.244Z,82.47
2022-11-17T22:19:16.355Z,84.81
2022-11-17T22:21:43.448Z,86.31
2022-11-17T22:24:11.409Z,84.13
2022-11-17T22:26:38.777Z,84.48
2022-11-17T22:29:06.448Z,83.70
2022-11-17T22:31:33.182Z,81.82
2022-11-17T22:33:59.959Z,83.66
2022-11-17T22:36:26.764Z,82.86
2022-11-17T22:38:53.704Z,82.46
2022-11-17T22:41:21.287Z,82.27
2022-11-17T22:43:48.856Z,80.62
2022-11-17T22:46:15.514Z,80.00
2022-11-17T22:48:42.241Z,79.70
2022-11-17T22:51:09.670Z,82.52
2022-11-17T22:53:36.669Z,81.89
2022-11-17T22:56:04.803Z,81.43
2022-11-17T22:58:32.131Z,85.17
2022-11-17T23:01:04.017Z,82.55
2022-11-17T23:03:30.947Z,83.48
2022-11-17T23:06:01.166Z,86.29
2022-11-17T23:08:28.132Z,82.81
2022-11-17T23:11:21.881Z,81.67
2022-11-17T23:13:46.497Z,82.14
2022-11-17T23:16:13.178Z,80.68
2022-11-17T23:18:39.895Z,81.36
2022-11-17T23:21:07.680Z,81.40
2022-11-17T23:23:38.362Z,78.73
2022-11-17T23:26:06.283Z,81.28
2022-11-17T23:28:33.047Z,79.74
2022-11-17T23:31:00.514Z,79.38
2022-11-17T23:33:32.059Z,79.43
2022-11-17T23:35:58.850Z,81.35
2022-11-17T23:38:25.547Z,78.82
2022-11-17T23:40:53.495Z,78.64
2022-11-17T23:43:20.227Z,79.14
2022-11-17T23:45:47.047Z,80.58
2022-11-17T23:48:13.730Z,78.34
2022-11-17T23:50:40.503Z,78.52
2022-11-17T23:53:07.167Z,77.83
2022-11-17T23:55:33.857Z,76.82
2022-11-17T23:58:00.581Z,76.20
